sensor_id;sensor_type;location;lat;lon;timestamp;temperature;humidity
7046;DHT22;3564;53.326;10.356;2023-04-06T00:02:16;7.10;84.70
7046;DHT22;3564;53.326;10.356;2023-04-06T00:04:42;7.10;84.80
7046;DHT22;3564;53.326;10.356;2023-04-06T00:07:07;7.00;84.90
7046;DHT22;3564;53.326;10.356;2023-04-06T00:09:33;7.00;84.80
7046;DHT22;3564;53.326;10.356;2023-04-06T00:11:59;7.00;84.70
7046;DHT22;3564;53.326;10.356;2023-04-06T00:14:25;7.00;84.90
7046;DHT22;3564;53.326;10.356;2023-04-06T00:16:51;6.90;84.70
7046;DHT22;3564;53.326;10.356;2023-04-06T00:19:16;6.90;84.70
7046;DHT22;3564;53.326;10.356;2023-04-06T00:21:42;6.90;84.80
7046;DHT22;3564;53.326;10.356;2023-04-06T00:24:10;6.80;84.70
7046;DHT22;3564;53.326;10.356;2023-04-06T00:26:36;6.80;84.70
7046;DHT22;3564;53.326;10.356;2023-04-06T00:29:04;6.80;85.10
7046;DHT22;3564;53.326;10.356;2023-04-06T00:31:30;6.70;85.10
7046;DHT22;3564;53.326;10.356;2023-04-06T00:33:56;6.70;85.10
7046;DHT22;3564;53.326;10.356;2023-04-06T00:36:21;6.70;85.20
7046;DHT22;3564;53.326;10.356;2023-04-06T00:38:47;6.60;85.30
7046;DHT22;3564;53.326;10.356;2023-04-06T00:41:15;6.60;85.30
7046;DHT22;3564;53.326;10.356;2023-04-06T00:43:41;6.60;85.20
7046;DHT22;3564;53.326;10.356;2023-04-06T00:46:06;6.60;85.40
7046;DHT22;3564;53.326;10.356;2023-04-06T00:48:33;6.50;85.40
7046;DHT22;3564;53.326;10.356;2023-04-06T00:50:58;6.50;85.20
7046;DHT22;3564;53.326;10.356;2023-04-06T00:53:27;6.50;85.20
7046;DHT22;3564;53.326;10.356;2023-04-06T00:55:53;6.50;85.40
7046;DHT22;3564;53.326;10.356;2023-04-06T00:58:18;6.50;85.60
7046;DHT22;3564;53.326;10.356;2023-04-06T01:00:47;6.50;85.80
7046;DHT22;3564;53.326;10.356;2023-04-06T01:03:13;6.40;85.70
7046;DHT22;3564;53.326;10.356;2023-04-06T01:05:42;6.40;85.80
7046;DHT22;3564;53.326;10.356;2023-04-06T01:08:07;6.40;85.80
7046;DHT22;3564;53.326;10.356;2023-04-06T01:10:33;6.40;85.60
7046;DHT22;3564;53.326;10.356;2023-04-06T01:13:02;6.40;85.60
7046;DHT22;3564;53.326;10.356;2023-04-06T01:15:28;6.30;85.60
7046;DHT22;3564;53.326;10.356;2023-04-06T01:17:54;6.30;85.60
7046;DHT22;3564;53.326;10.356;2023-04-06T01:20:20;6.30;85.70
7046;DHT22;3564;53.326;10.356;2023-04-06T01:22:49;6.30;85.60
7046;DHT22;3564;53.326;10.356;2023-04-06T01:25:14;6.20;85.70
7046;DHT22;3564;53.326;10.356;2023-04-06T01:27:40;6.20;85.40
7046;DHT22;3564;53.326;10.356;2023-04-06T01:30:06;6.20;85.60
7046;DHT22;3564;53.326;10.356;2023-04-06T01:32:32;6.10;85.50
7046;DHT22;3564;53.326;10.356;2023-04-06T01:35:00;6.10;85.50
7046;DHT22;3564;53.326;10.356;2023-04-06T01:37:26;6.10;86.20
7046;DHT22;3564;53.326;10.356;2023-04-06T01:39:51;6.10;85.80
7046;DHT22;3564;53.326;10.356;2023-04-06T01:42:18;6.00;85.90
7046;DHT22;3564;53.326;10.356;2023-04-06T01:44:43;6.00;85.70
7046;DHT22;3564;53.326;10.356;2023-04-06T01:47:09;6.00;85.50
7046;DHT22;3564;53.326;10.356;2023-04-06T01:49:40;5.90;85.60
7046;DHT22;3564;53.326;10.356;2023-04-06T01:52:06;5.90;85.50
7046;DHT22;3564;53.326;10.356;2023-04-06T01:54:32;5.90;85.70
7046;DHT22;3564;53.326;10.356;2023-04-06T01:56:57;5.90;86.10
7046;DHT22;3564;53.326;10.356;2023-04-06T01:59:23;5.90;86.10
7046;DHT22;3564;53.326;10.356;2023-04-06T02:01:48;5.80;85.60
7046;DHT22;3564;53.326;10.356;2023-04-06T02:04:17;5.80;85.40
7046;DHT22;3564;53.326;10.356;2023-04-06T02:06:42;5.80;85.80
7046;DHT22;3564;53.326;10.356;2023-04-06T02:09:14;5.80;85.80
7046;DHT22;3564;53.326;10.356;2023-04-06T02:11:40;5.70;85.50
7046;DHT22;3564;53.326;10.356;2023-04-06T02:14:05;5.70;85.60
7046;DHT22;3564;53.326;10.356;2023-04-06T02:16:31;5.70;86.10
7046;DHT22;3564;53.326;10.356;2023-04-06T02:18:57;5.70;86.30
7046;DHT22;3564;53.326;10.356;2023-04-06T02:21:22;5.70;86.90
7046;DHT22;3564;53.326;10.356;2023-04-06T02:23:48;5.70;86.00
7046;DHT22;3564;53.326;10.356;2023-04-06T02:26:15;5.60;85.80
7046;DHT22;3564;53.326;10.356;2023-04-06T02:28:41;5.60;85.80
7046;DHT22;3564;53.326;10.356;2023-04-06T02:31:07;5.60;86.00
7046;DHT22;3564;53.326;10.356;2023-04-06T02:33:32;5.60;85.90
7046;DHT22;3564;53.326;10.356;2023-04-06T02:35:58;5.60;85.80
7046;DHT22;3564;53.326;10.356;2023-04-06T02:38:24;5.50;86.10
7046;DHT22;3564;53.326;10.356;2023-04-06T02:40:49;5.50;86.00
7046;DHT22;3564;53.326;10.356;2023-04-06T02:43:15;5.50;86.20
7046;DHT22;3564;53.326;10.356;2023-04-06T02:45:42;5.50;86.10
7046;DHT22;3564;53.326;10.356;2023-04-06T02:48:07;5.50;86.40
7046;DHT22;3564;53.326;10.356;2023-04-06T02:50:33;5.50;86.50
7046;DHT22;3564;53.326;10.356;2023-04-06T02:53:02;5.50;86.70
7046;DHT22;3564;53.326;10.356;2023-04-06T02:55:27;5.40;86.80
7046;DHT22;3564;53.326;10.356;2023-04-06T02:57:53;5.50;87.10
7046;DHT22;3564;53.326;10.356;2023-04-06T03:00:18;5.50;87.30
7046;DHT22;3564;53.326;10.356;2023-04-06T03:02:44;5.50;87.30
7046;DHT22;3564;53.326;10.356;2023-04-06T03:05:10;5.50;87.40
7046;DHT22;3564;53.326;10.356;2023-04-06T03:07:38;5.50;87.70
7046;DHT22;3564;53.326;10.356;2023-04-06T03:10:05;5.50;87.50
7046;DHT22;3564;53.326;10.356;2023-04-06T03:12:30;5.50;87.50
7046;DHT22;3564;53.326;10.356;2023-04-06T03:14:56;5.50;87.20
7046;DHT22;3564;53.326;10.356;2023-04-06T03:17:21;5.50;87.10
7046;DHT22;3564;53.326;10.356;2023-04-06T03:19:47;5.50;87.10
7046;DHT22;3564;53.326;10.356;2023-04-06T03:22:15;5.50;87.10
7046;DHT22;3564;53.326;10.356;2023-04-06T03:24:41;5.50;86.80
7046;DHT22;3564;53.326;10.356;2023-04-06T03:27:07;5.50;86.80
7046;DHT22;3564;53.326;10.356;2023-04-06T03:29:32;5.50;86.80
7046;DHT22;3564;53.326;10.356;2023-04-06T03:32:01;5.40;86.70
7046;DHT22;3564;53.326;10.356;2023-04-06T03:34:26;5.40;86.70
7046;DHT22;3564;53.326;10.356;2023-04-06T03:36:55;5.40;86.70
7046;DHT22;3564;53.326;10.356;2023-04-06T03:39:21;5.40;86.50
7046;DHT22;3564;53.326;10.356;2023-04-06T03:41:46;5.30;86.30
7046;DHT22;3564;53.326;10.356;2023-04-06T03:44:12;5.30;86.40
7046;DHT22;3564;53.326;10.356;2023-04-06T03:46:37;5.30;86.50
7046;DHT22;3564;53.326;10.356;2023-04-06T03:49:06;5.30;86.60
7046;DHT22;3564;53.326;10.356;2023-04-06T03:51:32;5.30;86.70
7046;DHT22;3564;53.326;10.356;2023-04-06T03:53:58;5.30;86.60
7046;DHT22;3564;53.326;10.356;2023-04-06T03:56:23;5.20;86.40
7046;DHT22;3564;53.326;10.356;2023-04-06T03:58:49;5.20;86.30
7046;DHT22;3564;53.326;10.356;2023-04-06T04:01:17;5.10;86.30
7046;DHT22;3564;53.326;10.356;2023-04-06T04:03:43;5.10;86.30
7046;DHT22;3564;53.326;10.356;2023-04-06T04:06:12;5.10;86.40
7046;DHT22;3564;53.326;10.356;2023-04-06T04:08:37;5.10;86.60
7046;DHT22;3564;53.326;10.356;2023-04-06T04:11:03;5.10;86.40
7046;DHT22;3564;53.326;10.356;2023-04-06T04:13:28;5.00;86.50
7046;DHT22;3564;53.326;10.356;2023-04-06T04:15:54;5.00;86.50
7046;DHT22;3564;53.326;10.356;2023-04-06T04:18:20;5.00;86.60
7046;DHT22;3564;53.326;10.356;2023-04-06T04:20:45;5.00;86.70
7046;DHT22;3564;53.326;10.356;2023-04-06T04:23:11;5.00;86.80
7046;DHT22;3564;53.326;10.356;2023-04-06T04:25:36;5.00;86.90
7046;DHT22;3564;53.326;10.356;2023-04-06T04:28:02;5.00;86.80
7046;DHT22;3564;53.326;10.356;2023-04-06T04:30:28;5.00;86.90
7046;DHT22;3564;53.326;10.356;2023-04-06T04:32:53;5.00;86.90
7046;DHT22;3564;53.326;10.356;2023-04-06T04:35:19;5.00;86.90
7046;DHT22;3564;53.326;10.356;2023-04-06T04:37:45;5.00;86.80
7046;DHT22;3564;53.326;10.356;2023-04-06T04:40:11;5.00;86.70
7046;DHT22;3564;53.326;10.356;2023-04-06T04:42:37;5.00;86.80
7046;DHT22;3564;53.326;10.356;2023-04-06T04:45:02;5.00;86.50
7046;DHT22;3564;53.326;10.356;2023-04-06T04:47:28;5.00;86.40
7046;DHT22;3564;53.326;10.356;2023-04-06T04:49:54;5.00;86.30
7046;DHT22;3564;53.326;10.356;2023-04-06T04:52:19;5.00;86.20
7046;DHT22;3564;53.326;10.356;2023-04-06T04:54:45;4.90;86.20
7046;DHT22;3564;53.326;10.356;2023-04-06T04:57:12;4.90;86.30
7046;DHT22;3564;53.326;10.356;2023-04-06T04:59:38;4.90;86.30
7046;DHT22;3564;53.326;10.356;2023-04-06T05:02:06;4.90;86.30
7046;DHT22;3564;53.326;10.356;2023-04-06T05:04:32;4.90;86.90
7046;DHT22;3564;53.326;10.356;2023-04-06T05:07:08;4.90;86.20
7046;DHT22;3564;53.326;10.356;2023-04-06T05:09:36;4.90;86.40
7046;DHT22;3564;53.326;10.356;2023-04-06T05:12:02;4.90;86.30
7046;DHT22;3564;53.326;10.356;2023-04-06T05:14:28;4.90;86.40
7046;DHT22;3564;53.326;10.356;2023-04-06T05:16:54;4.80;86.50
7046;DHT22;3564;53.326;10.356;2023-04-06T05:19:20;4.80;86.60
7046;DHT22;3564;53.326;10.356;2023-04-06T05:21:45;4.80;86.50
7046;DHT22;3564;53.326;10.356;2023-04-06T05:24:17;4.80;87.30
7046;DHT22;3564;53.326;10.356;2023-04-06T05:26:42;4.80;86.80
7046;DHT22;3564;53.326;10.356;2023-04-06T05:29:08;4.80;87.50
7046;DHT22;3564;53.326;10.356;2023-04-06T05:31:34;4.80;86.80
7046;DHT22;3564;53.326;10.356;2023-04-06T05:33:59;4.80;87.00
7046;DHT22;3564;53.326;10.356;2023-04-06T05:36:25;4.80;87.10
7046;DHT22;3564;53.326;10.356;2023-04-06T05:38:58;4.80;87.30
7046;DHT22;3564;53.326;10.356;2023-04-06T05:41:24;4.80;87.50
7046;DHT22;3564;53.326;10.356;2023-04-06T05:43:50;4.80;87.80
7046;DHT22;3564;53.326;10.356;2023-04-06T05:46:15;4.90;88.20
7046;DHT22;3564;53.326;10.356;2023-04-06T05:48:44;4.90;88.50
7046;DHT22;3564;53.326;10.356;2023-04-06T05:51:10;4.90;88.40
7046;DHT22;3564;53.326;10.356;2023-04-06T05:53:36;4.90;88.50
7046;DHT22;3564;53.326;10.356;2023-04-06T05:56:02;5.00;88.70
7046;DHT22;3564;53.326;10.356;2023-04-06T05:58:28;5.00;89.10
7046;DHT22;3564;53.326;10.356;2023-04-06T06:01:00;5.00;89.20
7046;DHT22;3564;53.326;10.356;2023-04-06T06:03:26;5.10;89.40
7046;DHT22;3564;53.326;10.356;2023-04-06T06:06:00;5.10;89.40
7046;DHT22;3564;53.326;10.356;2023-04-06T06:08:26;5.10;89.50
7046;DHT22;3564;53.326;10.356;2023-04-06T06:10:51;5.20;89.70
7046;DHT22;3564;53.326;10.356;2023-04-06T06:13:20;5.20;89.70
7046;DHT22;3564;53.326;10.356;2023-04-06T06:15:46;5.20;90.10
7046;DHT22;3564;53.326;10.356;2023-04-06T06:18:11;5.20;90.00
7046;DHT22;3564;53.326;10.356;2023-04-06T06:20:37;5.30;90.00
7046;DHT22;3564;53.326;10.356;2023-04-06T06:23:03;5.30;90.00
7046;DHT22;3564;53.326;10.356;2023-04-06T06:25:32;5.30;90.00
7046;DHT22;3564;53.326;10.356;2023-04-06T06:27:58;5.30;90.10
7046;DHT22;3564;53.326;10.356;2023-04-06T06:30:24;5.40;90.10
7046;DHT22;3564;53.326;10.356;2023-04-06T06:32:52;5.40;90.20
7046;DHT22;3564;53.326;10.356;2023-04-06T06:35:18;5.50;90.30
7046;DHT22;3564;53.326;10.356;2023-04-06T06:37:44;5.50;90.20
7046;DHT22;3564;53.326;10.356;2023-04-06T06:40:10;5.60;90.20
7046;DHT22;3564;53.326;10.356;2023-04-06T06:42:38;5.60;90.20
7046;DHT22;3564;53.326;10.356;2023-04-06T06:45:04;5.70;90.20
7046;DHT22;3564;53.326;10.356;2023-04-06T06:47:30;5.70;90.20
7046;DHT22;3564;53.326;10.356;2023-04-06T06:50:02;5.80;90.20
7046;DHT22;3564;53.326;10.356;2023-04-06T06:52:28;5.90;90.20
7046;DHT22;3564;53.326;10.356;2023-04-06T06:54:57;6.00;90.20
7046;DHT22;3564;53.326;10.356;2023-04-06T06:57:27;6.10;90.10
7046;DHT22;3564;53.326;10.356;2023-04-06T06:59:56;6.10;90.00
7046;DHT22;3564;53.326;10.356;2023-04-06T07:02:21;6.20;90.00
7046;DHT22;3564;53.326;10.356;2023-04-06T07:04:48;6.30;90.10
7046;DHT22;3564;53.326;10.356;2023-04-06T07:07:17;6.30;90.00
7046;DHT22;3564;53.326;10.356;2023-04-06T07:09:43;6.40;90.00
7046;DHT22;3564;53.326;10.356;2023-04-06T07:12:08;6.50;90.00
7046;DHT22;3564;53.326;10.356;2023-04-06T07:14:34;6.50;90.10
7046;DHT22;3564;53.326;10.356;2023-04-06T07:16:59;6.60;90.10
7046;DHT22;3564;53.326;10.356;2023-04-06T07:19:25;6.70;90.20
7046;DHT22;3564;53.326;10.356;2023-04-06T07:21:51;6.80;90.10
7046;DHT22;3564;53.326;10.356;2023-04-06T07:24:16;6.80;90.20
7046;DHT22;3564;53.326;10.356;2023-04-06T07:26:42;6.90;90.30
7046;DHT22;3564;53.326;10.356;2023-04-06T07:29:11;7.00;90.30
7046;DHT22;3564;53.326;10.356;2023-04-06T07:31:37;7.10;90.40
7046;DHT22;3564;53.326;10.356;2023-04-06T07:34:06;7.20;90.50
7046;DHT22;3564;53.326;10.356;2023-04-06T07:36:32;7.30;90.50
7046;DHT22;3564;53.326;10.356;2023-04-06T07:38:57;7.40;90.20
7046;DHT22;3564;53.326;10.356;2023-04-06T07:41:23;7.50;90.10
7046;DHT22;3564;53.326;10.356;2023-04-06T07:43:49;7.50;90.10
7046;DHT22;3564;53.326;10.356;2023-04-06T07:46:15;7.70;90.00
7046;DHT22;3564;53.326;10.356;2023-04-06T07:48:40;7.70;89.70
7046;DHT22;3564;53.326;10.356;2023-04-06T07:51:10;7.80;89.30
7046;DHT22;3564;53.326;10.356;2023-04-06T07:53:39;7.90;87.90
7046;DHT22;3564;53.326;10.356;2023-04-06T07:56:05;8.00;87.70
7046;DHT22;3564;53.326;10.356;2023-04-06T07:58:31;8.10;87.50
7046;DHT22;3564;53.326;10.356;2023-04-06T08:00:56;8.20;87.60
7046;DHT22;3564;53.326;10.356;2023-04-06T08:03:23;8.20;87.10
7046;DHT22;3564;53.326;10.356;2023-04-06T08:05:52;8.30;85.50
7046;DHT22;3564;53.326;10.356;2023-04-06T08:08:18;8.40;83.30
7046;DHT22;3564;53.326;10.356;2023-04-06T08:10:44;8.50;83.00
7046;DHT22;3564;53.326;10.356;2023-04-06T08:13:10;8.60;82.20
7046;DHT22;3564;53.326;10.356;2023-04-06T08:15:36;8.60;82.10
7046;DHT22;3564;53.326;10.356;2023-04-06T08:18:03;8.80;80.50
7046;DHT22;3564;53.326;10.356;2023-04-06T08:20:29;8.80;81.00
7046;DHT22;3564;53.326;10.356;2023-04-06T08:22:55;8.90;80.40
7046;DHT22;3564;53.326;10.356;2023-04-06T08:25:20;9.00;79.40
7046;DHT22;3564;53.326;10.356;2023-04-06T08:27:46;9.10;77.80
7046;DHT22;3564;53.326;10.356;2023-04-06T08:30:12;9.20;76.50
7046;DHT22;3564;53.326;10.356;2023-04-06T08:32:37;9.30;76.80
7046;DHT22;3564;53.326;10.356;2023-04-06T08:35:03;9.40;76.90
7046;DHT22;3564;53.326;10.356;2023-04-06T08:37:29;9.50;76.80
7046;DHT22;3564;53.326;10.356;2023-04-06T08:39:55;9.60;76.20
7046;DHT22;3564;53.326;10.356;2023-04-06T08:42:25;9.70;75.90
7046;DHT22;3564;53.326;10.356;2023-04-06T08:44:51;9.80;74.50
7046;DHT22;3564;53.326;10.356;2023-04-06T08:47:18;9.90;73.10
7046;DHT22;3564;53.326;10.356;2023-04-06T08:49:47;10.00;71.60
7046;DHT22;3564;53.326;10.356;2023-04-06T08:52:15;10.10;71.80
7046;DHT22;3564;53.326;10.356;2023-04-06T08:54:43;10.20;72.10
7046;DHT22;3564;53.326;10.356;2023-04-06T08:57:09;10.30;71.20
7046;DHT22;3564;53.326;10.356;2023-04-06T08:59:35;10.40;70.80
7046;DHT22;3564;53.326;10.356;2023-04-06T09:02:04;10.50;69.10
7046;DHT22;3564;53.326;10.356;2023-04-06T09:04:31;10.60;67.90
7046;DHT22;3564;53.326;10.356;2023-04-06T09:06:57;10.60;67.50
7046;DHT22;3564;53.326;10.356;2023-04-06T09:09:23;10.70;66.90
7046;DHT22;3564;53.326;10.356;2023-04-06T09:11:53;10.90;66.50
7046;DHT22;3564;53.326;10.356;2023-04-06T09:14:38;10.90;67.30
7046;DHT22;3564;53.326;10.356;2023-04-06T09:17:04;11.00;65.80
7046;DHT22;3564;53.326;10.356;2023-04-06T09:19:30;11.10;63.90
7046;DHT22;3564;53.326;10.356;2023-04-06T09:22:03;11.20;63.70
7046;DHT22;3564;53.326;10.356;2023-04-06T09:24:48;11.30;63.10
7046;DHT22;3564;53.326;10.356;2023-04-06T09:27:15;11.40;65.10
7046;DHT22;3564;53.326;10.356;2023-04-06T09:29:41;11.50;65.80
7046;DHT22;3564;53.326;10.356;2023-04-06T09:32:08;11.60;66.40
7046;DHT22;3564;53.326;10.356;2023-04-06T09:34:37;11.70;65.20
7046;DHT22;3564;53.326;10.356;2023-04-06T09:37:33;11.80;64.10
7046;DHT22;3564;53.326;10.356;2023-04-06T09:40:06;11.90;64.40
7046;DHT22;3564;53.326;10.356;2023-04-06T09:42:35;12.00;63.20
7046;DHT22;3564;53.326;10.356;2023-04-06T09:45:01;12.10;62.60
7046;DHT22;3564;53.326;10.356;2023-04-06T09:47:28;12.20;62.40
7046;DHT22;3564;53.326;10.356;2023-04-06T09:49:59;12.30;61.00
7046;DHT22;3564;53.326;10.356;2023-04-06T09:52:51;12.30;61.60
7046;DHT22;3564;53.326;10.356;2023-04-06T09:55:33;12.40;62.80
7046;DHT22;3564;53.326;10.356;2023-04-06T09:58:07;12.50;63.00
7046;DHT22;3564;53.326;10.356;2023-04-06T10:01:29;12.60;62.10
7046;DHT22;3564;53.326;10.356;2023-04-06T10:06:34;12.90;61.80
7046;DHT22;3564;53.326;10.356;2023-04-06T10:09:02;13.00;61.70
7046;DHT22;3564;53.326;10.356;2023-04-06T10:11:29;13.10;61.30
7046;DHT22;3564;53.326;10.356;2023-04-06T10:13:55;13.30;63.10
7046;DHT22;3564;53.326;10.356;2023-04-06T10:16:22;13.40;61.60
7046;DHT22;3564;53.326;10.356;2023-04-06T10:18:54;13.50;60.30
7046;DHT22;3564;53.326;10.356;2023-04-06T10:21:24;13.60;60.70
7046;DHT22;3564;53.326;10.356;2023-04-06T10:23:57;13.60;61.20
7046;DHT22;3564;53.326;10.356;2023-04-06T10:26:27;13.70;60.40
7046;DHT22;3564;53.326;10.356;2023-04-06T10:28:53;13.80;60.70
7046;DHT22;3564;53.326;10.356;2023-04-06T10:31:28;13.90;60.70
7046;DHT22;3564;53.326;10.356;2023-04-06T10:33:55;14.00;60.70
7046;DHT22;3564;53.326;10.356;2023-04-06T10:36:31;14.10;60.50
7046;DHT22;3564;53.326;10.356;2023-04-06T10:39:07;14.20;61.30
7046;DHT22;3564;53.326;10.356;2023-04-06T10:41:44;14.30;60.90
7046;DHT22;3564;53.326;10.356;2023-04-06T10:44:20;14.40;60.20
7046;DHT22;3564;53.326;10.356;2023-04-06T10:46:58;14.50;60.10
7046;DHT22;3564;53.326;10.356;2023-04-06T10:49:26;14.60;59.60
7046;DHT22;3564;53.326;10.356;2023-04-06T10:51:53;14.70;59.30
7046;DHT22;3564;53.326;10.356;2023-04-06T10:54:21;14.80;57.90
7046;DHT22;3564;53.326;10.356;2023-04-06T10:56:48;14.80;58.20
7046;DHT22;3564;53.326;10.356;2023-04-06T10:59:19;14.90;58.40
7046;DHT22;3564;53.326;10.356;2023-04-06T11:01:45;15.00;58.60
7046;DHT22;3564;53.326;10.356;2023-04-06T11:04:16;15.00;57.80
7046;DHT22;3564;53.326;10.356;2023-04-06T11:06:49;15.00;56.30
7046;DHT22;3564;53.326;10.356;2023-04-06T11:09:29;15.10;57.50
7046;DHT22;3564;53.326;10.356;2023-04-06T11:12:08;15.10;58.50
7046;DHT22;3564;53.326;10.356;2023-04-06T11:14:56;15.20;57.80
7046;DHT22;3564;53.326;10.356;2023-04-06T11:17:30;15.30;58.50
7046;DHT22;3564;53.326;10.356;2023-04-06T11:19:57;15.30;58.40
7046;DHT22;3564;53.326;10.356;2023-04-06T11:22:23;15.50;58.50
7046;DHT22;3564;53.326;10.356;2023-04-06T11:24:52;15.60;57.80
7046;DHT22;3564;53.326;10.356;2023-04-06T11:27:18;15.60;57.90
7046;DHT22;3564;53.326;10.356;2023-04-06T11:29:47;15.70;55.90
7046;DHT22;3564;53.326;10.356;2023-04-06T11:32:20;15.70;56.50
7046;DHT22;3564;53.326;10.356;2023-04-06T11:34:47;15.80;56.90
7046;DHT22;3564;53.326;10.356;2023-04-06T11:37:13;15.90;56.70
7046;DHT22;3564;53.326;10.356;2023-04-06T11:39:47;15.90;56.00
7046;DHT22;3564;53.326;10.356;2023-04-06T11:42:21;15.90;56.70
7046;DHT22;3564;53.326;10.356;2023-04-06T11:44:50;16.00;55.90
7046;DHT22;3564;53.326;10.356;2023-04-06T11:47:40;16.00;55.80
7046;DHT22;3564;53.326;10.356;2023-04-06T11:50:11;16.00;56.20
7046;DHT22;3564;53.326;10.356;2023-04-06T11:52:40;16.10;56.20
7046;DHT22;3564;53.326;10.356;2023-04-06T11:55:17;16.20;57.10
7046;DHT22;3564;53.326;10.356;2023-04-06T11:57:43;16.20;56.70
7046;DHT22;3564;53.326;10.356;2023-04-06T12:00:10;16.20;55.40
7046;DHT22;3564;53.326;10.356;2023-04-06T12:02:37;16.30;55.40
7046;DHT22;3564;53.326;10.356;2023-04-06T12:05:04;16.30;55.00
7046;DHT22;3564;53.326;10.356;2023-04-06T12:07:30;16.30;55.40
7046;DHT22;3564;53.326;10.356;2023-04-06T12:10:02;16.30;55.00
7046;DHT22;3564;53.326;10.356;2023-04-06T12:12:28;16.30;56.50
7046;DHT22;3564;53.326;10.356;2023-04-06T12:14:55;16.30;55.90
7046;DHT22;3564;53.326;10.356;2023-04-06T12:17:24;16.40;56.00
7046;DHT22;3564;53.326;10.356;2023-04-06T12:19:49;16.40;55.80
7046;DHT22;3564;53.326;10.356;2023-04-06T12:22:17;16.50;57.20
7046;DHT22;3564;53.326;10.356;2023-04-06T12:24:49;16.50;56.90
7046;DHT22;3564;53.326;10.356;2023-04-06T12:27:24;16.60;55.80
7046;DHT22;3564;53.326;10.356;2023-04-06T12:29:50;16.60;55.70
7046;DHT22;3564;53.326;10.356;2023-04-06T12:32:16;16.60;55.50
7046;DHT22;3564;53.326;10.356;2023-04-06T12:34:44;16.60;56.30
7046;DHT22;3564;53.326;10.356;2023-04-06T12:37:13;16.70;56.30
7046;DHT22;3564;53.326;10.356;2023-04-06T12:39:41;16.70;57.20
7046;DHT22;3564;53.326;10.356;2023-04-06T12:42:09;16.80;57.10
7046;DHT22;3564;53.326;10.356;2023-04-06T12:44:36;16.80;56.40
7046;DHT22;3564;53.326;10.356;2023-04-06T12:47:04;16.80;56.30
7046;DHT22;3564;53.326;10.356;2023-04-06T12:49:30;16.90;55.40
7046;DHT22;3564;53.326;10.356;2023-04-06T12:51:57;16.90;55.60
7046;DHT22;3564;53.326;10.356;2023-04-06T12:54:22;16.90;55.50
7046;DHT22;3564;53.326;10.356;2023-04-06T12:56:48;16.90;55.60
7046;DHT22;3564;53.326;10.356;2023-04-06T12:59:13;16.90;55.50
7046;DHT22;3564;53.326;10.356;2023-04-06T13:01:39;17.00;55.50
7046;DHT22;3564;53.326;10.356;2023-04-06T13:04:08;17.00;55.60
7046;DHT22;3564;53.326;10.356;2023-04-06T13:06:37;17.10;55.60
7046;DHT22;3564;53.326;10.356;2023-04-06T13:09:02;17.20;56.10
7046;DHT22;3564;53.326;10.356;2023-04-06T13:11:32;17.20;56.20
7046;DHT22;3564;53.326;10.356;2023-04-06T13:13:58;17.30;56.10
7046;DHT22;3564;53.326;10.356;2023-04-06T13:16:23;17.30;55.10
7046;DHT22;3564;53.326;10.356;2023-04-06T13:18:49;17.30;55.50
7046;DHT22;3564;53.326;10.356;2023-04-06T13:21:15;17.30;56.10
7046;DHT22;3564;53.326;10.356;2023-04-06T13:23:44;17.30;56.30
7046;DHT22;3564;53.326;10.356;2023-04-06T13:26:10;17.40;56.60
7046;DHT22;3564;53.326;10.356;2023-04-06T13:28:36;17.40;56.30
7046;DHT22;3564;53.326;10.356;2023-04-06T13:31:04;17.50;56.60
7046;DHT22;3564;53.326;10.356;2023-04-06T13:33:30;17.60;55.80
7046;DHT22;3564;53.326;10.356;2023-04-06T13:35:56;17.70;56.90
7046;DHT22;3564;53.326;10.356;2023-04-06T13:38:22;17.70;56.40
7046;DHT22;3564;53.326;10.356;2023-04-06T13:40:49;17.70;56.40
7046;DHT22;3564;53.326;10.356;2023-04-06T13:43:15;17.80;55.80
7046;DHT22;3564;53.326;10.356;2023-04-06T13:45:41;17.80;55.80
7046;DHT22;3564;53.326;10.356;2023-04-06T13:48:09;17.90;55.30
7046;DHT22;3564;53.326;10.356;2023-04-06T13:50:35;17.90;54.80
7046;DHT22;3564;53.326;10.356;2023-04-06T13:53:03;18.00;55.20
7046;DHT22;3564;53.326;10.356;2023-04-06T13:55:29;18.10;55.10
7046;DHT22;3564;53.326;10.356;2023-04-06T13:57:56;18.20;55.70
7046;DHT22;3564;53.326;10.356;2023-04-06T14:00:22;18.20;54.50
7046;DHT22;3564;53.326;10.356;2023-04-06T14:02:47;18.30;54.50
7046;DHT22;3564;53.326;10.356;2023-04-06T14:05:13;18.40;55.00
7046;DHT22;3564;53.326;10.356;2023-04-06T14:07:39;18.50;54.80
7046;DHT22;3564;53.326;10.356;2023-04-06T14:10:06;18.60;55.20
7046;DHT22;3564;53.326;10.356;2023-04-06T14:12:42;18.70;54.80
7046;DHT22;3564;53.326;10.356;2023-04-06T14:15:09;18.80;54.90
7046;DHT22;3564;53.326;10.356;2023-04-06T14:17:34;18.80;54.10
7046;DHT22;3564;53.326;10.356;2023-04-06T14:20:00;18.90;54.60
7046;DHT22;3564;53.326;10.356;2023-04-06T14:22:26;19.10;55.00
7046;DHT22;3564;53.326;10.356;2023-04-06T14:24:51;19.20;54.40
7046;DHT22;3564;53.326;10.356;2023-04-06T14:27:17;19.30;54.60
7046;DHT22;3564;53.326;10.356;2023-04-06T14:29:45;19.40;54.40
7046;DHT22;3564;53.326;10.356;2023-04-06T14:32:10;19.60;54.30
7046;DHT22;3564;53.326;10.356;2023-04-06T14:34:39;19.70;54.40
7046;DHT22;3564;53.326;10.356;2023-04-06T14:37:08;19.80;53.50
7046;DHT22;3564;53.326;10.356;2023-04-06T14:39:33;19.90;52.20
7046;DHT22;3564;53.326;10.356;2023-04-06T14:41:59;20.00;52.90
7046;DHT22;3564;53.326;10.356;2023-04-06T14:44:25;20.10;54.10
7046;DHT22;3564;53.326;10.356;2023-04-06T14:46:51;20.20;54.30
7046;DHT22;3564;53.326;10.356;2023-04-06T14:49:16;20.30;53.00
7046;DHT22;3564;53.326;10.356;2023-04-06T14:51:42;20.40;52.70
7046;DHT22;3564;53.326;10.356;2023-04-06T14:54:08;20.50;53.00
7046;DHT22;3564;53.326;10.356;2023-04-06T14:56:33;20.70;53.20
7046;DHT22;3564;53.326;10.356;2023-04-06T14:58:59;20.90;52.30
7046;DHT22;3564;53.326;10.356;2023-04-06T15:01:27;21.30;52.30
7046;DHT22;3564;53.326;10.356;2023-04-06T15:03:52;22.10;51.90
7046;DHT22;3564;53.326;10.356;2023-04-06T15:06:21;23.40;51.60
7046;DHT22;3564;53.326;10.356;2023-04-06T15:08:48;25.00;51.00
7046;DHT22;3564;53.326;10.356;2023-04-06T15:11:19;26.50;48.70
7046;DHT22;3564;53.326;10.356;2023-04-06T15:13:45;27.80;46.80
7046;DHT22;3564;53.326;10.356;2023-04-06T15:16:11;29.00;45.20
7046;DHT22;3564;53.326;10.356;2023-04-06T15:18:36;30.00;43.90
7046;DHT22;3564;53.326;10.356;2023-04-06T15:21:02;30.80;42.80
7046;DHT22;3564;53.326;10.356;2023-04-06T15:23:28;31.60;41.60
7046;DHT22;3564;53.326;10.356;2023-04-06T15:25:58;32.10;41.10
7046;DHT22;3564;53.326;10.356;2023-04-06T15:28:23;32.50;39.40
7046;DHT22;3564;53.326;10.356;2023-04-06T15:30:49;32.70;38.60
7046;DHT22;3564;53.326;10.356;2023-04-06T15:33:15;32.90;37.50
7046;DHT22;3564;53.326;10.356;2023-04-06T15:35:41;32.90;36.90
7046;DHT22;3564;53.326;10.356;2023-04-06T15:38:07;32.80;37.50
7046;DHT22;3564;53.326;10.356;2023-04-06T15:40:44;32.60;37.00
7046;DHT22;3564;53.326;10.356;2023-04-06T15:43:10;32.40;36.60
7046;DHT22;3564;53.326;10.356;2023-04-06T15:45:36;32.10;36.30
7046;DHT22;3564;53.326;10.356;2023-04-06T15:48:05;31.80;37.00
7046;DHT22;3564;53.326;10.356;2023-04-06T15:50:31;31.50;36.80
7046;DHT22;3564;53.326;10.356;2023-04-06T15:52:57;31.20;36.80
7046;DHT22;3564;53.326;10.356;2023-04-06T15:55:23;30.90;36.60
7046;DHT22;3564;53.326;10.356;2023-04-06T15:57:48;30.60;37.20
7046;DHT22;3564;53.326;10.356;2023-04-06T16:00:14;30.50;37.50